Time,TemperatureF,DewpointF,PressureIn,WindDirection,WindDirectionDegrees,WindSpeedMPH,WindSpeedGustMPH,Humidity,HourlyPrecipIn,Conditions,Clouds,dailyrainin,SoftwareType,DateUTC
2013-01-26 00:22:00,-14.0,-24.0,-100.00,West,270,2.0,2.0,59,0.00,,,0.00,,2013-01-26 09:22:00,
2013-01-26 00:51:00,-14.0,-24.0,-100.00,NW,305,2.0,3.0,58,0.00,,,0.00,,2013-01-26 09:51:00,
2013-01-26 01:52:00,-14.0,-25.0,-100.00,NNW,335,2.0,3.0,57,0.00,,,0.00,,2013-01-26 10:52:00,
2013-01-26 02:21:00,-15.0,-25.0,-100.00,NW,310,2.0,3.0,58,0.00,,,0.00,,2013-01-26 11:21:00,
2013-01-26 02:52:00,-14.0,-25.0,-100.00,West,265,3.0,3.0,57,0.00,,,0.00,,2013-01-26 11:52:00,
2013-01-26 04:22:00,-21.0,-28.0,-100.00,SSW,195,2.0,3.0,66,0.00,,,0.00,,2013-01-26 13:22:00,
2013-01-26 05:21:00,-21.0,-28.0,-100.00,South,185,2.0,4.0,67,0.00,,,0.00,,2013-01-26 14:21:00,
2013-01-26 06:21:00,-20.0,-27.0,-100.00,SW,220,3.0,5.0,68,0.00,,,0.00,,2013-01-26 15:21:00,
2013-01-26 07:21:00,-24.0,-31.0,-100.00,ESE,120,6.0,8.0,68,0.00,,,0.00,,2013-01-26 16:21:00,
2013-01-26 07:32:00,-24.0,-31.0,-100.00,ESE,120,6.0,8.0,68,0.00,,,0.00,,2013-01-26 16:32:00,
2013-01-26 07:42:00,-24.0,-31.0,-100.00,ESE,120,6.0,8.0,68,0.00,,,0.00,,2013-01-26 16:42:00,
2013-01-26 07:52:00,-27.0,-34.0,-100.00,SE,130,7.0,9.0,68,0.00,,,0.00,,2013-01-26 16:52:00,
2013-01-26 08:03:00,-27.0,-34.0,-100.00,SE,130,7.0,9.0,68,0.00,,,0.00,,2013-01-26 17:03:00,
2013-01-26 08:12:00,-27.0,-34.0,-100.00,SE,130,7.0,9.0,68,0.00,,,0.00,,2013-01-26 17:12:00,
2013-01-26 08:22:00,-27.0,-34.0,-100.00,ESE,120,4.0,9.0,68,0.00,,,0.00,,2013-01-26 17:22:00,
2013-01-26 08:32:00,-27.0,-34.0,-100.00,ESE,120,4.0,9.0,68,0.00,,,0.00,,2013-01-26 17:32:00,
2013-01-26 08:42:00,-27.0,-34.0,-100.00,ESE,120,4.0,9.0,68,0.00,,,0.00,,2013-01-26 17:42:00,
2013-01-26 08:52:00,-27.0,-34.0,-100.00,SE,130,6.0,9.0,68,0.00,,,0.00,,2013-01-26 17:52:00,
2013-01-26 09:02:00,-27.0,-34.0,-100.00,SE,130,6.0,9.0,68,0.00,,,0.00,,2013-01-26 18:02:00,
2013-01-26 09:12:00,-27.0,-34.0,-100.00,SE,130,6.0,9.0,68,0.00,,,0.00,,2013-01-26 18:12:00,
2013-01-26 09:22:00,-27.0,-33.0,-100.00,ESE,110,6.0,9.0,68,0.00,,,0.00,,2013-01-26 18:22:00,
2013-01-26 09:32:00,-27.0,-33.0,-100.00,ESE,110,6.0,9.0,68,0.00,,,0.00,,2013-01-26 18:32:00,
2013-01-26 09:42:00,-27.0,-33.0,-100.00,ESE,110,6.0,9.0,68,0.00,,,0.00,,2013-01-26 18:42:00,
2013-01-26 09:52:00,-26.0,-33.0,-100.00,SE,130,5.0,9.0,68,0.00,,,0.00,,2013-01-26 18:52:00,
2013-01-26 10:03:00,-26.0,-33.0,-100.00,SE,130,5.0,9.0,68,0.00,,,0.00,,2013-01-26 19:03:00,
2013-01-26 10:11:00,-26.0,-33.0,-100.00,SE,130,5.0,9.0,68,0.00,,,0.00,,2013-01-26 19:11:00,
2013-01-26 10:22:00,-25.0,-32.0,-100.00,SE,125,6.0,8.0,68,0.00,,,0.00,,2013-01-26 19:22:00,
2013-01-26 10:32:00,-25.0,-32.0,-100.00,SE,125,6.0,8.0,68,0.00,,,0.00,,2013-01-26 19:32:00,
2013-01-26 10:42:00,-25.0,-32.0,-100.00,SE,125,6.0,8.0,68,0.00,,,0.00,,2013-01-26 19:42:00,
2013-01-26 10:52:00,-25.0,-32.0,-100.00,ESE,120,4.0,8.0,68,0.00,,,0.00,,2013-01-26 19:52:00,
2013-01-26 11:02:00,-25.0,-32.0,-100.00,ESE,120,4.0,8.0,68,0.00,,,0.00,,2013-01-26 20:02:00,
2013-01-26 11:11:00,-25.0,-32.0,-100.00,ESE,120,4.0,8.0,68,0.00,,,0.00,,2013-01-26 20:11:00,
2013-01-26 11:21:00,-23.0,-30.0,-100.00,ESE,120,4.0,8.0,68,0.00,,,0.00,,2013-01-26 20:21:00,
2013-01-26 11:42:00,-23.0,-30.0,-100.00,ESE,120,4.0,8.0,68,0.00,,,0.00,,2013-01-26 20:42:00,
2013-01-26 11:52:00,-23.0,-30.0,-100.00,SE,125,3.0,7.0,68,0.00,,,0.00,,2013-01-26 20:52:00,
2013-01-26 12:02:00,-23.0,-30.0,-100.00,SE,125,3.0,7.0,68,0.00,,,0.00,,2013-01-26 21:02:00,
2013-01-26 12:12:00,-23.0,-30.0,-100.00,SE,125,3.0,7.0,68,0.00,,,0.00,,2013-01-26 21:12:00,
2013-01-26 12:22:00,-23.0,-30.0,-100.00,ESE,105,4.0,7.0,68,0.00,,,0.00,,2013-01-26 21:22:00,
2013-01-26 12:32:00,-23.0,-30.0,-100.00,ESE,105,4.0,7.0,68,0.00,,,0.00,,2013-01-26 21:32:00,
2013-01-26 12:42:00,-23.0,-30.0,-100.00,ESE,105,4.0,7.0,68,0.00,,,0.00,,2013-01-26 21:42:00,
2013-01-26 12:51:00,-22.0,-29.0,-100.00,SE,125,3.0,6.0,68,0.00,,,0.00,,2013-01-26 21:51:00,
2013-01-26 13:01:00,-22.0,-29.0,-100.00,SE,125,3.0,6.0,68,0.00,,,0.00,,2013-01-26 22:01:00,
2013-01-26 13:11:00,-22.0,-29.0,-100.00,SE,125,3.0,6.0,68,0.00,,,0.00,,2013-01-26 22:11:00,
2013-01-26 13:21:00,-20.0,-27.0,-100.00,East,100,3.0,6.0,68,0.00,,,0.00,,2013-01-26 22:21:00,
2013-01-26 13:31:00,-20.0,-27.0,-100.00,East,100,3.0,6.0,68,0.00,,,0.00,,2013-01-26 22:31:00,
2013-01-26 13:42:00,-20.0,-27.0,-100.00,East,100,3.0,6.0,68,0.00,,,0.00,,2013-01-26 22:42:00,
2013-01-26 13:51:00,-20.0,-27.0,-100.00,ESE,120,3.0,7.0,68,0.00,,,0.00,,2013-01-26 22:51:00,
2013-01-26 14:01:00,-20.0,-27.0,-100.00,ESE,120,3.0,7.0,68,0.00,,,0.00,,2013-01-26 23:01:00,
2013-01-26 14:21:00,-20.0,-27.0,-100.00,East,80,1.0,4.0,68,0.00,,,0.00,,2013-01-26 23:21:00,
2013-01-26 14:32:00,-20.0,-27.0,-100.00,East,80,1.0,4.0,68,0.00,,,0.00,,2013-01-26 23:32:00,
2013-01-26 14:41:00,-20.0,-27.0,-100.00,East,80,1.0,4.0,68,0.00,,,0.00,,2013-01-26 23:41:00,
2013-01-26 14:52:00,-19.0,-26.0,-100.00,SE,135,2.0,3.0,68,0.00,,,0.00,,2013-01-26 23:52:00,
2013-01-26 15:02:00,-19.0,-26.0,-100.00,SE,135,2.0,3.0,68,0.00,,,0.00,,2013-01-27 00:02:00,
2013-01-26 15:11:00,-19.0,-26.0,-100.00,SE,135,2.0,3.0,68,0.00,,,0.00,,2013-01-27 00:11:00,
2013-01-26 15:21:00,-18.0,-25.0,-100.00,SE,145,1.0,2.0,68,0.00,,,0.00,,2013-01-27 00:21:00,
2013-01-26 15:32:00,-18.0,-25.0,-100.00,SE,145,1.0,2.0,68,0.00,,,0.00,,2013-01-27 00:32:00,
2013-01-26 15:41:00,-18.0,-25.0,-100.00,SE,145,1.0,2.0,68,0.00,,,0.00,,2013-01-27 00:41:00,
2013-01-26 15:51:00,-20.0,-27.0,-100.00,NE,50,0.0,2.0,68,0.00,,,0.00,,2013-01-27 00:51:00,
2013-01-26 16:01:00,-20.0,-27.0,-100.00,NE,50,0.0,2.0,68,0.00,,,0.00,,2013-01-27 01:01:00,
2013-01-26 16:11:00,-20.0,-27.0,-100.00,NE,50,0.0,2.0,68,0.00,,,0.00,,2013-01-27 01:11:00,
2013-01-26 16:22:00,-21.0,-29.0,-100.00,NNE,30,0.0,2.0,68,0.00,,,0.00,,2013-01-27 01:22:00,
2013-01-26 16:32:00,-21.0,-29.0,-100.00,NNE,30,0.0,2.0,68,0.00,,,0.00,,2013-01-27 01:32:00,
2013-01-26 16:41:00,-21.0,-29.0,-100.00,NNE,30,0.0,2.0,68,0.00,,,0.00,,2013-01-27 01:41:00,
2013-01-26 16:51:00,-21.0,-29.0,-100.00,ESE,110,1.0,2.0,68,0.00,,,0.00,,2013-01-27 01:51:00,
2013-01-26 17:01:00,-21.0,-29.0,-100.00,ESE,110,1.0,2.0,68,0.00,,,0.00,,2013-01-27 02:01:00,
2013-01-26 17:11:00,-21.0,-29.0,-100.00,ESE,110,1.0,2.0,68,0.00,,,0.00,,2013-01-27 02:11:00,
2013-01-26 17:21:00,-21.0,-28.0,-100.00,SE,140,2.0,4.0,68,0.00,,,0.00,,2013-01-27 02:21:00,
2013-01-26 17:31:00,-21.0,-28.0,-100.00,SE,140,2.0,4.0,68,0.00,,,0.00,,2013-01-27 02:31:00,
2013-01-26 17:41:00,-21.0,-28.0,-100.00,SE,140,2.0,4.0,68,0.00,,,0.00,,2013-01-27 02:41:00,
2013-01-26 17:52:00,-22.0,-29.0,-100.00,North,0,2.0,2.0,68,0.00,,,0.00,,2013-01-27 02:52:00,
2013-01-26 18:01:00,-22.0,-29.0,-100.00,North,0,2.0,2.0,68,0.00,,,0.00,,2013-01-27 03:01:00,
2013-01-26 18:11:00,-22.0,-29.0,-100.00,North,0,2.0,2.0,68,0.00,,,0.00,,2013-01-27 03:11:00,
2013-01-26 18:21:00,-23.0,-30.0,-100.00,North,355,1.0,1.0,68,0.00,,,0.00,,2013-01-27 03:21:00,
2013-01-26 18:31:00,-23.0,-30.0,-100.00,North,355,1.0,1.0,68,0.00,,,0.00,,2013-01-27 03:31:00,
2013-01-26 18:41:00,-23.0,-30.0,-100.00,North,355,1.0,1.0,68,0.00,,,0.00,,2013-01-27 03:41:00,
2013-01-26 18:51:00,-23.0,-30.0,-100.00,North,5,0.0,1.0,68,0.00,,,0.00,,2013-01-27 03:51:00,
2013-01-26 19:01:00,-23.0,-30.0,-100.00,North,5,0.0,1.0,68,0.00,,,0.00,,2013-01-27 04:01:00,
2013-01-26 19:11:00,-23.0,-30.0,-100.00,North,5,0.0,1.0,68,0.00,,,0.00,,2013-01-27 04:11:00,
2013-01-26 19:21:00,-23.0,-30.0,-100.00,South,170,1.0,1.0,68,0.00,,,0.00,,2013-01-27 04:21:00,
2013-01-26 19:31:00,-23.0,-30.0,-100.00,South,170,1.0,1.0,68,0.00,,,0.00,,2013-01-27 04:31:00,
2013-01-26 19:41:00,-23.0,-30.0,-100.00,South,170,1.0,1.0,68,0.00,,,0.00,,2013-01-27 04:41:00,
2013-01-26 19:51:00,-22.0,-29.0,-100.00,NE,45,1.0,1.0,68,0.00,,,0.00,,2013-01-27 04:51:00,
2013-01-26 20:03:00,-22.0,-29.0,-100.00,NE,45,1.0,1.0,68,0.00,,,0.00,,2013-01-27 05:03:00,
2013-01-26 20:12:00,-22.0,-29.0,-100.00,NE,45,1.0,1.0,68,0.00,,,0.00,,2013-01-27 05:12:00,
2013-01-26 20:22:00,-22.0,-29.0,-100.00,NNE,30,1.0,1.0,68,0.00,,,0.00,,2013-01-27 05:22:00,
2013-01-26 20:32:00,-22.0,-29.0,-100.00,NNE,30,1.0,1.0,68,0.00,,,0.00,,2013-01-27 05:32:00,
2013-01-26 20:41:00,-22.0,-29.0,-100.00,NNE,30,1.0,1.0,68,0.00,,,0.00,,2013-01-27 05:41:00,
2013-01-26 20:52:00,-23.0,-30.0,-100.00,North,5,1.0,1.0,68,0.00,,,0.00,,2013-01-27 05:52:00,
2013-01-26 21:01:00,-23.0,-30.0,-100.00,North,5,1.0,1.0,68,0.00,,,0.00,,2013-01-27 06:01:00,
2013-01-26 21:11:00,-23.0,-30.0,-100.00,North,5,1.0,1.0,68,0.00,,,0.00,,2013-01-27 06:11:00,
2013-01-26 21:21:00,-22.0,-29.0,-100.00,SSE,165,0.0,1.0,68,0.00,,,0.00,,2013-01-27 06:21:00,
2013-01-26 21:31:00,-22.0,-29.0,-100.00,SSE,165,0.0,1.0,68,0.00,,,0.00,,2013-01-27 06:31:00,
2013-01-26 21:41:00,-22.0,-29.0,-100.00,SSE,165,0.0,1.0,68,0.00,,,0.00,,2013-01-27 06:41:00,
2013-01-26 21:51:00,-23.0,-30.0,-100.00,NNW,330,1.0,1.0,68,0.00,,,0.00,,2013-01-27 06:51:00,
2013-01-26 22:01:00,-23.0,-30.0,-100.00,NNW,330,1.0,1.0,68,0.00,,,0.00,,2013-01-27 07:01:00,
2013-01-26 22:13:00,-23.0,-30.0,-100.00,NNW,330,1.0,1.0,68,0.00,,,0.00,,2013-01-27 07:13:00,
2013-01-26 22:21:00,-23.0,-31.0,-100.00,North,355,1.0,2.0,68,0.00,,,0.00,,2013-01-27 07:21:00,
2013-01-26 22:31:00,-23.0,-31.0,-100.00,North,355,1.0,2.0,68,0.00,,,0.00,,2013-01-27 07:31:00,
2013-01-26 22:41:00,-23.0,-31.0,-100.00,North,355,1.0,2.0,68,0.00,,,0.00,,2013-01-27 07:41:00,
2013-01-26 22:51:00,-23.0,-30.0,-100.00,NNW,345,1.0,2.0,68,0.00,,,0.00,,2013-01-27 07:51:00,
2013-01-26 23:01:00,-23.0,-30.0,-100.00,NNW,345,1.0,2.0,68,0.00,,,0.00,,2013-01-27 08:01:00,
2013-01-26 23:11:00,-23.0,-30.0,-100.00,NNW,345,1.0,2.0,68,0.00,,,0.00,,2013-01-27 08:11:00,
2013-01-26 23:21:00,-23.0,-30.0,-100.00,SE,130,0.0,0.0,68,0.00,,,0.00,,2013-01-27 08:21:00,
2013-01-26 23:31:00,-23.0,-30.0,-100.00,SE,130,0.0,0.0,68,0.00,,,0.00,,2013-01-27 08:31:00,
2013-01-26 23:41:00,-23.0,-30.0,-100.00,SE,130,0.0,0.0,68,0.00,,,0.00,,2013-01-27 08:41:00,
2013-01-26 23:52:00,-23.0,-30.0,-100.00,SSE,155,1.0,1.0,68,0.00,,,0.00,,2013-01-27 08:52:00,